Terminal Aerodrome Forecast
Issued by NWS Jackson, KY

Home | Current Version | Previous Version | Text Only | Print | Product List | Glossary On
Versions: 1 2 3 4 5 6 7 8 9 10 11 12 13 14 15 16 17
000
FTUS43 KJKL 211139
TAFLOZ
TAF
KLOZ 211139Z 2112/2212 19008KT P6SM SCT070 WS020/21040KT
     FM211400 21009G17KT P6SM VCSH BKN060
     FM211900 25009KT P6SM -SHRA BKN030
     FM220400 VRB05KT 3SM -SHRA OVC008
     FM220700 VRB03KT 2SM SHRA OVC005=

USA.gov is the U.S. government's official web portal to all federal, state and local government web resources and services.